Time;durP1;ratioP1;P1;durP2;ratioP2;P2;SDS_P1;SDS_P2;PMS_P1;PMS_P2;Temp;Humidity;BMP_temperature;BMP_pressure;BME280_temperature;BME280_humidity;BME280_pressure;Samples;Min_cycle;Max_cycle;Signal;HPM_P1;HPM_P2
2021/03/18 00:00:50;;;;;;;4.50;3.88;;;;;;;6.08;74.70;101002.97;4957139;28;20073;-71
2021/03/18 00:03:21;;;;;;;4.25;3.47;;;;;;;6.08;74.15;101004.63;4941753;28;20101;-71
2021/03/18 00:05:49;;;;;;;4.72;4.07;;;;;;;6.07;74.57;101006.34;4974562;28;20066;-71
2021/03/18 00:08:19;;;;;;;5.15;3.72;;;;;;;6.08;74.23;101000.38;4940697;28;20039;-71
2021/03/18 00:10:48;;;;;;;5.28;4.40;;;;;;;6.07;74.29;101010.63;4974216;28;20031;-71
2021/03/18 00:13:14;;;;;;;5.05;4.05;;;;;;;6.08;74.77;101002.06;4957180;28;20035;-71
2021/03/18 00:15:42;;;;;;;6.82;4.07;;;;;;;6.08;74.70;100996.91;4957000;28;20035;-71
2021/03/18 00:18:12;;;;;;;5.50;3.78;;;;;;;6.07;74.90;100990.03;4941639;28;20046;-71
2021/03/18 00:20:41;;;;;;;4.68;3.53;;;;;;;6.07;74.51;100995.19;4974116;28;20037;-71
2021/03/18 00:23:09;;;;;;;6.03;4.00;;;;;;;6.06;74.69;100973.69;4940937;28;20038;-71
2021/03/18 00:25:37;;;;;;;5.65;3.90;;;;;;;6.06;74.77;100970.25;4957026;28;20101;-71
2021/03/18 00:28:03;;;;;;;7.22;4.13;;;;;;;6.06;74.45;100970.25;4941076;28;20062;-71
2021/03/18 00:30:32;;;;;;;6.63;4.40;;;;;;;6.05;74.94;100971.06;4956700;28;20082;-71
2021/03/18 00:33:03;;;;;;;6.88;3.92;;;;;;;6.05;74.93;100979.63;4957506;28;20050;-71
2021/03/18 00:35:32;;;;;;;6.40;3.83;;;;;;;6.05;74.91;100968.47;4941025;28;20487;-71
2021/03/18 00:38:03;;;;;;;4.65;3.92;;;;;;;6.05;74.50;100964.19;4941132;28;20090;-71
2021/03/18 00:40:34;;;;;;;6.35;4.80;;;;;;;6.04;74.66;100965.00;4944040;28;20046;-71
2021/03/18 00:43:07;;;;;;;5.93;3.65;;;;;;;6.04;74.63;100959.84;4944793;28;20062;-72
2021/03/18 00:45:36;;;;;;;5.63;3.70;;;;;;;6.05;74.88;100965.91;4944839;28;20110;-71
2021/03/18 00:48:03;;;;;;;5.82;3.65;;;;;;;6.03;74.25;100952.94;4944332;28;20042;-71
2021/03/18 00:50:37;;;;;;;4.70;3.42;;;;;;;6.03;74.43;100960.66;4944306;28;20041;-71
2021/03/18 00:53:05;;;;;;;4.60;3.60;;;;;;;6.03;74.69;100973.53;4944248;28;20043;-71
2021/03/18 00:55:31;;;;;;;5.47;4.15;;;;;;;6.03;74.26;100985.53;4944321;28;20031;-71
2021/03/18 00:57:59;;;;;;;5.05;3.63;;;;;;;6.02;74.74;100976.03;4960588;28;20070;-71
2021/03/18 01:00:32;;;;;;;11.25;4.18;;;;;;;6.01;74.17;100988.00;4960201;28;20039;-71
2021/03/18 01:02:58;;;;;;;5.22;4.40;;;;;;;6.02;74.77;100981.19;4943989;28;20054;-71
2021/03/18 01:05:43;;;;;;;8.63;4.40;;;;;;;6.00;74.32;100983.66;4977716;28;20053;-69
2021/03/18 01:08:11;;;;;;;6.43;4.03;;;;;;;6.01;74.45;100979.41;4959988;28;20073;-71
2021/03/18 01:10:47;;;;;;;5.20;4.28;;;;;;;6.00;75.01;100978.53;4977231;28;20034;-71
2021/03/18 01:13:19;;;;;;;5.90;4.00;;;;;;;6.01;74.28;100979.41;4977403;28;20181;-71
2021/03/18 01:15:55;;;;;;;5.85;3.88;;;;;;;6.00;74.83;100973.38;4943820;28;20030;-71
2021/03/18 01:18:27;;;;;;;5.78;4.13;;;;;;;5.99;74.92;100968.13;4944325;28;20062;-71
2021/03/18 01:20:55;;;;;;;6.18;4.47;;;;;;;5.99;74.66;100973.28;4977090;28;20071;-71
2021/03/18 01:23:20;;;;;;;5.38;4.35;;;;;;;5.98;74.55;100959.53;4959761;28;20039;-71
2021/03/18 01:25:49;;;;;;;7.28;5.05;;;;;;;5.97;74.51;100970.63;4959577;28;20041;-71
2021/03/18 01:28:17;;;;;;;6.07;4.18;;;;;;;5.97;74.51;100970.63;4944072;28;20121;-71
2021/03/18 01:30:45;;;;;;;5.28;4.70;;;;;;;5.98;74.83;100976.66;4976659;28;20497;-71
2021/03/18 01:33:13;;;;;;;5.28;4.43;;;;;;;5.98;75.04;100979.22;4977010;28;20046;-71
2021/03/18 01:35:41;;;;;;;4.72;4.07;;;;;;;5.97;74.64;100973.22;4959250;28;20076;-71
2021/03/18 01:38:07;;;;;;;5.97;4.35;;;;;;;5.98;74.87;100981.81;4976854;28;20043;-71
2021/03/18 01:40:33;;;;;;;8.18;4.82;;;;;;;5.97;75.00;100983.50;4976527;28;20034;-71
2021/03/18 01:42:59;;;;;;;7.25;4.05;;;;;;;5.97;74.83;100980.03;4942785;28;20078;-70
2021/03/18 01:45:25;;;;;;;5.55;4.38;;;;;;;5.95;74.33;100974.81;4943705;28;20063;-71
2021/03/18 01:47:52;;;;;;;4.72;4.00;;;;;;;5.95;75.02;100973.13;4959460;28;20077;-71
2021/03/18 01:50:23;;;;;;;7.43;5.40;;;;;;;5.95;74.72;100977.41;4943481;28;20039;-71
2021/03/18 01:52:49;;;;;;;5.60;4.07;;;;;;;5.95;74.52;100982.53;4943261;28;20097;-71
2021/03/18 01:55:35;;;;;;;10.48;4.45;;;;;;;5.93;74.67;100977.31;4976112;28;20035;-71
2021/03/18 01:58:02;;;;;;;6.32;4.70;;;;;;;5.93;74.57;100971.28;4943803;28;20059;-71
2021/03/18 02:00:28;;;;;;;6.32;5.10;;;;;;;5.93;75.19;100979.00;4959122;28;20050;-71
2021/03/18 02:02:55;;;;;;;4.60;3.60;;;;;;;5.92;74.83;100987.53;4943061;28;20443;-71
2021/03/18 02:05:24;;;;;;;6.10;4.07;;;;;;;5.92;74.93;100987.53;4943145;28;20501;-71
2021/03/18 02:07:54;;;;;;;5.95;4.38;;;;;;;5.93;74.87;100984.16;4943059;28;20129;-71
2021/03/18 02:10:25;;;;;;;7.68;5.32;;;;;;;5.92;74.93;100970.38;4942639;28;20506;-71
2021/03/18 02:12:54;;;;;;;5.47;4.60;;;;;;;5.92;74.74;100977.25;4959214;28;20073;-71
2021/03/18 02:15:27;;;;;;;6.45;4.90;;;;;;;5.91;74.67;100972.91;4942866;28;20097;-71
2021/03/18 02:18:02;;;;;;;6.45;4.32;;;;;;;5.90;74.79;100969.47;4976176;28;20390;-71
2021/03/18 02:21:01;;;;;;;5.72;4.90;;;;;;;5.88;75.09;100965.91;4958760;28;20030;-71
2021/03/18 02:23:51;;;;;;;5.88;4.72;;;;;;;5.87;74.99;100966.72;4958998;28;20049;-71
2021/03/18 02:26:57;;;;;;;7.18;5.32;;;;;;;5.87;74.33;100964.16;4975967;28;20046;-71
2021/03/18 02:30:00;;;;;;;5.15;3.95;;;;;;;5.85;74.94;100963.19;4959213;28;20549;-70
2021/03/18 02:33:04;;;;;;;6.43;4.68;;;;;;;5.86;74.83;100956.34;4975966;28;20027;-71
2021/03/18 02:35:54;;;;;;;6.22;4.85;;;;;;;5.85;74.67;100955.47;4919820;28;20469;-71
2021/03/18 02:38:56;;;;;;;7.05;5.10;;;;;;;5.85;75.15;100945.19;4958753;28;20446;-70
2021/03/18 02:41:27;;;;;;;6.18;4.43;;;;;;;5.85;74.68;100941.69;4971413;28;20058;-71
2021/03/18 02:44:06;;;;;;;5.85;4.53;;;;;;;5.84;74.54;100934.81;4957968;28;20039;-70
2021/03/18 02:46:37;;;;;;;7.25;4.38;;;;;;;5.84;75.15;100933.13;4958655;28;20042;-70
2021/03/18 02:49:08;;;;;;;5.18;4.63;;;;;;;5.84;74.62;100942.53;4975536;28;20514;-70
2021/03/18 02:51:37;;;;;;;5.15;4.30;;;;;;;5.84;74.97;100934.81;4958144;28;20043;-70
2021/03/18 02:54:08;;;;;;;4.70;4.03;;;;;;;5.84;75.09;100934.81;4941916;28;20042;-70
2021/03/18 02:56:39;;;;;;;5.97;4.95;;;;;;;5.84;75.37;100935.69;4943190;28;20605;-71
2021/03/18 02:59:06;;;;;;;8.65;4.75;;;;;;;5.83;74.72;100941.63;4942447;28;20047;-71
2021/03/18 03:01:33;;;;;;;6.63;4.30;;;;;;;5.83;74.63;100927.91;4941144;28;20450;-71
2021/03/18 03:04:01;;;;;;;6.60;5.00;;;;;;;5.83;74.62;100922.75;4942009;28;20045;-71
2021/03/18 03:06:32;;;;;;;6.07;4.32;;;;;;;5.83;74.70;100933.06;4975342;28;20049;-70
2021/03/18 03:09:01;;;;;;;6.07;4.65;;;;;;;5.82;74.59;100936.44;4957934;28;20034;-70
2021/03/18 03:11:32;;;;;;;5.70;4.57;;;;;;;5.81;74.98;100945.81;4941833;28;20112;-70
2021/03/18 03:14:02;;;;;;;5.35;4.68;;;;;;;5.81;74.73;100940.69;4957838;28;20038;-71
2021/03/18 03:16:29;;;;;;;8.27;4.57;;;;;;;5.81;74.85;100939.81;4941847;28;20411;-71
2021/03/18 03:19:00;;;;;;;5.72;4.72;;;;;;;5.80;75.01;100946.63;4941544;28;20121;-70
2021/03/18 03:21:28;;;;;;;6.00;4.90;;;;;;;5.80;75.05;100938.91;4974806;28;20089;-70
2021/03/18 03:23:57;;;;;;;7.25;5.07;;;;;;;5.78;74.60;100933.69;4957540;28;20074;-70
2021/03/18 03:26:25;;;;;;;7.53;5.25;;;;;;;5.79;74.68;100925.19;4941714;28;20042;-70
2021/03/18 03:28:54;;;;;;;8.63;5.15;;;;;;;5.79;75.30;100921.72;4974519;28;20115;-70
2021/03/18 03:31:20;;;;;;;7.38;5.32;;;;;;;5.78;75.04;100909.66;4941718;28;20035;-70
2021/03/18 03:33:54;;;;;;;6.95;5.55;;;;;;;5.77;75.03;100913.94;4957663;28;20541;-70
2021/03/18 03:36:23;;;;;;;7.90;5.50;;;;;;;5.78;74.61;100915.69;4957563;28;20503;-70
2021/03/18 03:38:49;;;;;;;6.43;5.50;;;;;;;5.76;74.63;100909.59;4975190;28;20101;-71
2021/03/18 03:41:17;;;;;;;7.40;5.65;;;;;;;5.77;75.29;100910.44;4974775;28;20514;-71
2021/03/18 03:43:43;;;;;;;9.15;5.95;;;;;;;5.76;75.22;100916.44;4957524;28;20126;-70
2021/03/18 03:46:16;;;;;;;9.18;6.55;;;;;;;5.75;74.65;100915.53;4957673;28;20038;-71
2021/03/18 03:48:41;;;;;;;7.93;5.55;;;;;;;5.76;74.52;100911.28;4941378;28;20055;-70
2021/03/18 03:51:07;;;;;;;8.90;5.90;;;;;;;5.75;75.17;100918.09;4957829;28;20121;-70
2021/03/18 03:53:41;;;;;;;6.85;5.55;;;;;;;5.75;74.75;100912.09;4975157;28;20038;-71
2021/03/18 03:56:32;;;;;;;8.32;5.95;;;;;;;5.74;74.76;100923.19;4941596;28;20035;-70
2021/03/18 03:59:04;;;;;;;7.10;5.90;;;;;;;5.74;74.51;100918.03;4974589;28;20043;-70
2021/03/18 04:01:48;;;;;;;8.68;6.18;;;;;;;5.73;75.59;100924.88;4974442;28;20035;-70
2021/03/18 04:04:29;;;;;;;9.75;6.75;;;;;;;5.73;75.08;100924.00;4974228;28;20383;-71
2021/03/18 04:06:59;;;;;;;7.07;5.60;;;;;;;5.73;74.86;100929.13;4974501;28;20035;-70
2021/03/18 04:09:28;;;;;;;7.18;6.00;;;;;;;5.71;75.20;100934.19;4940968;28;20066;-70
2021/03/18 04:11:55;;;;;;;7.97;6.38;;;;;;;5.71;74.61;100935.91;4941851;28;20039;-70
2021/03/18 04:14:26;;;;;;;8.07;6.25;;;;;;;5.71;74.80;100936.75;4960206;28;20042;-71
2021/03/18 04:16:57;;;;;;;7.65;5.95;;;;;;;5.71;75.03;100943.59;4961173;28;20054;-71
2021/03/18 04:19:26;;;;;;;9.48;7.60;;;;;;;5.72;74.51;100937.66;4945187;28;20079;-70
2021/03/18 04:21:56;;;;;;;11.45;7.97;;;;;;;5.71;74.65;100947.03;4944796;28;20046;-70
2021/03/18 04:24:24;;;;;;;8.43;7.07;;;;;;;5.71;74.87;100949.63;4960712;28;20413;-71
2021/03/18 04:26:54;;;;;;;8.65;7.22;;;;;;;5.70;75.05;100949.56;4960854;28;20030;-70
2021/03/18 04:29:21;;;;;;;9.75;6.95;;;;;;;5.71;74.81;100951.31;4944701;28;20034;-70
2021/03/18 04:31:50;;;;;;;11.30;7.40;;;;;;;5.69;74.76;100953.81;4977978;28;20174;-70
2021/03/18 04:34:18;;;;;;;10.88;8.00;;;;;;;5.69;74.53;100956.38;4960843;28;20502;-70
2021/03/18 04:36:44;;;;;;;11.10;7.68;;;;;;;5.68;75.10;100951.16;4944616;28;20035;-70
2021/03/18 04:39:14;;;;;;;9.13;7.35;;;;;;;5.68;75.08;100956.31;4960652;28;20031;-71
2021/03/18 04:41:41;;;;;;;11.25;7.93;;;;;;;5.67;74.79;100952.88;4944825;28;20035;-70
2021/03/18 04:44:09;;;;;;;8.95;7.30;;;;;;;5.67;75.31;100940.00;4978136;28;20031;-70
2021/03/18 04:46:44;;;;;;;9.23;7.78;;;;;;;5.68;75.02;100940.88;4960818;28;20129;-71
2021/03/18 04:49:09;;;;;;;10.93;7.88;;;;;;;5.67;74.93;100936.53;4960507;28;20506;-70
2021/03/18 04:51:37;;;;;;;8.70;7.05;;;;;;;5.66;74.84;100937.34;4944390;28;20491;-71
2021/03/18 04:54:09;;;;;;;14.85;7.90;;;;;;;5.64;74.82;100932.13;4977697;28;20034;-70
2021/03/18 04:56:39;;;;;;;10.57;7.82;;;;;;;5.63;74.96;100930.38;4943793;28;20047;-70
2021/03/18 04:59:07;;;;;;;10.45;7.25;;;;;;;5.63;75.40;100931.22;4944390;28;20047;-71
2021/03/18 05:01:36;;;;;;;11.40;8.02;;;;;;;5.62;74.99;100928.59;4959817;28;20126;-69
2021/03/18 05:04:07;;;;;;;10.23;7.57;;;;;;;5.61;74.85;100921.69;4960427;28;20521;-70
2021/03/18 05:06:33;;;;;;;9.80;7.93;;;;;;;5.60;74.86;100920.81;4959717;28;20101;-71
2021/03/18 05:09:02;;;;;;;9.10;7.40;;;;;;;5.61;75.19;100919.13;4944600;28;20031;-71
2021/03/18 05:11:28;;;;;;;11.70;8.10;;;;;;;5.62;74.92;100918.31;4960170;28;20122;-70
2021/03/18 05:13:54;;;;;;;9.52;7.25;;;;;;;5.62;74.73;100910.59;4977416;28;20117;-70
2021/03/18 05:16:25;;;;;;;9.73;7.78;;;;;;;5.60;75.39;100910.53;4959979;28;20039;-70
2021/03/18 05:18:54;;;;;;;11.60;8.52;;;;;;;5.60;75.19;100909.63;4944360;28;20038;-71
2021/03/18 05:21:22;;;;;;;14.32;9.43;;;;;;;5.59;74.93;100903.63;4977388;28;20042;-71
2021/03/18 05:23:50;;;;;;;12.70;8.57;;;;;;;5.60;75.15;100909.63;4959856;28;20091;-71
2021/03/18 05:26:18;;;;;;;11.38;7.93;;;;;;;5.59;75.06;100902.72;4943043;28;20095;-71
2021/03/18 05:28:49;;;;;;;11.30;8.80;;;;;;;5.58;75.25;100903.53;4976869;28;20035;-70
2021/03/18 05:31:15;;;;;;;11.20;8.30;;;;;;;5.58;75.00;100908.66;4944048;28;20137;-70
2021/03/18 05:33:40;;;;;;;14.32;9.32;;;;;;;5.57;75.24;100910.38;4976936;28;20510;-71
2021/03/18 05:36:09;;;;;;;12.52;8.13;;;;;;;5.58;75.00;100911.22;4959654;28;20093;-71
2021/03/18 05:38:37;;;;;;;12.45;8.73;;;;;;;5.59;75.11;100921.63;4943411;28;20488;-71
2021/03/18 05:41:06;;;;;;;11.38;8.52;;;;;;;5.60;75.49;100917.34;4977136;28;20121;-71
2021/03/18 05:43:32;;;;;;;11.95;9.40;;;;;;;5.57;75.13;100914.63;4959117;28;20046;-70
2021/03/18 05:46:04;;;;;;;9.77;7.93;;;;;;;5.57;74.79;100909.47;4976814;28;20038;-71
2021/03/18 05:48:30;;;;;;;12.02;10.13;;;;;;;5.55;75.27;100911.97;4976755;28;20414;-71
2021/03/18 05:50:59;;;;;;;11.02;7.80;;;;;;;5.55;75.42;100911.06;4943192;28;20371;-71
2021/03/18 05:53:29;;;;;;;14.65;8.80;;;;;;;5.53;75.26;100918.72;4943739;28;20133;-71
2021/03/18 05:55:56;;;;;;;11.88;7.65;;;;;;;5.53;74.99;100918.72;4976835;28;20046;-71
2021/03/18 05:58:24;;;;;;;12.68;8.10;;;;;;;5.54;74.78;100919.59;4943207;28;20049;-71
2021/03/18 06:00:53;;;;;;;11.13;8.60;;;;;;;5.53;75.13;100916.16;4959171;28;20070;-71
2021/03/18 06:03:22;;;;;;;12.43;9.10;;;;;;;5.53;75.32;100911.00;4942813;28;20101;-71
2021/03/18 06:05:51;;;;;;;11.60;7.85;;;;;;;5.54;74.94;100910.22;4943115;28;20089;-71
2021/03/18 06:08:19;;;;;;;12.60;8.95;;;;;;;5.55;75.18;100913.66;4942948;28;20121;-71
2021/03/18 06:10:47;;;;;;;11.75;8.15;;;;;;;5.53;75.42;100907.56;4942819;28;20450;-71
2021/03/18 06:13:15;;;;;;;10.20;8.65;;;;;;;5.49;75.45;100904.84;4976055;28;20043;-71
2021/03/18 06:15:44;;;;;;;12.35;7.93;;;;;;;5.50;75.06;100900.56;4943650;28;20180;-71
2021/03/18 06:18:12;;;;;;;11.60;9.38;;;;;;;5.49;75.23;100909.97;4976088;28;20038;-71
2021/03/18 06:20:42;;;;;;;11.52;9.10;;;;;;;5.49;75.40;100901.38;4976230;28;20065;-71
2021/03/18 06:23:11;;;;;;;10.82;8.90;;;;;;;5.49;75.01;100904.84;4958642;28;20047;-71
2021/03/18 06:25:37;;;;;;;16.10;9.40;;;;;;;5.49;75.51;100902.28;4942672;28;20070;-71
2021/03/18 06:28:22;;;;;;;12.20;9.32;;;;;;;5.50;75.32;100898.00;4959280;28;20094;-71
2021/03/18 06:31:11;;;;;;;12.52;9.45;;;;;;;5.48;75.35;100900.50;4975496;28;20042;-71
2021/03/18 06:33:45;;;;;;;11.07;8.88;;;;;;;5.47;74.87;100888.44;4942669;28;20050;-70
2021/03/18 06:36:21;;;;;;;15.18;10.00;;;;;;;5.46;74.87;100884.13;4958438;28;20077;-71
2021/03/18 06:39:16;;;;;;;13.63;9.48;;;;;;;5.44;75.04;100885.72;4975576;28;20058;-71
2021/03/18 06:41:55;;;;;;;11.95;8.65;;;;;;;5.43;74.90;100878.81;4941226;28;20062;-71
2021/03/18 06:44:29;;;;;;;12.35;9.38;;;;;;;5.42;74.83;100877.03;4958125;28;20039;-71
2021/03/18 06:47:09;;;;;;;10.65;9.30;;;;;;;5.41;75.10;100876.97;4958732;28;20049;-71
2021/03/18 06:49:34;;;;;;;14.57;10.20;;;;;;;5.42;75.61;100864.19;4958409;28;20074;-71
2021/03/18 06:52:11;;;;;;;13.60;9.93;;;;;;;5.41;75.03;100874.41;4975441;28;20450;-71
2021/03/18 06:54:43;;;;;;;13.27;10.60;;;;;;;5.42;74.61;100863.31;4957985;28;20069;-71
2021/03/18 06:57:10;;;;;;;12.30;9.48;;;;;;;5.42;75.87;100874.47;4958340;28;20030;-71
2021/03/18 06:59:40;;;;;;;14.38;11.07;;;;;;;5.40;75.83;100870.94;4942094;28;20066;-71
2021/03/18 07:02:14;;;;;;;13.75;10.18;;;;;;;5.39;75.42;100869.16;4957891;28;20097;-71
2021/03/18 07:04:51;;;;;;;13.98;9.02;;;;;;;5.39;75.27;100871.75;4975533;28;20038;-71
2021/03/18 07:07:20;;;;;;;15.80;10.60;;;;;;;5.37;75.71;100865.66;4975329;28;20121;-71
2021/03/18 07:09:46;;;;;;;14.25;9.77;;;;;;;5.35;74.90;100859.56;4942324;28;20035;-71
2021/03/18 07:12:17;;;;;;;15.73;10.10;;;;;;;5.36;75.12;100868.13;4957985;28;20047;-70
2021/03/18 07:14:47;;;;;;;14.23;10.07;;;;;;;5.36;74.99;100866.47;4941755;28;20074;-71
2021/03/18 07:17:33;;;;;;;15.73;11.45;;;;;;;5.36;75.39;100875.84;4959665;28;20043;-71
2021/03/18 07:20:16;;;;;;;;;;;;;;;5.33;75.08;100867.19;4942889;28;20045;-70
2021/03/18 07:22:46;;;;;;;13.20;9.98;;;;;;;5.33;75.48;100862.03;4958019;28;19914;-71
2021/03/18 07:25:15;;;;;;;15.05;10.00;;;;;;;5.33;75.64;100863.75;4957798;28;20051;-71
2021/03/18 07:27:44;;;;;;;14.15;10.45;;;;;;;5.32;75.43;100870.56;4957527;28;20038;-70
2021/03/18 07:30:22;;;;;;;16.23;10.93;;;;;;;5.32;75.05;100864.53;4974586;28;20035;-70
2021/03/18 07:32:52;;;;;;;15.75;11.02;;;;;;;5.31;75.29;100855.94;4975147;28;20039;-71
2021/03/18 07:35:20;;;;;;;13.85;10.95;;;;;;;5.30;75.60;100861.00;4958005;28;20394;-70
2021/03/18 07:37:46;;;;;;;16.65;11.52;;;;;;;5.30;75.13;100861.88;4941368;28;20090;-70
2021/03/18 07:40:16;;;;;;;15.75;10.88;;;;;;;5.29;75.15;100860.13;4957262;28;20035;-71
2021/03/18 07:42:42;;;;;;;17.05;11.77;;;;;;;5.29;74.80;100857.56;4941272;28;20034;-71
2021/03/18 07:45:14;;;;;;;17.08;11.63;;;;;;;5.30;75.15;100854.16;4941529;28;20043;-71
2021/03/18 07:47:41;;;;;;;17.02;11.75;;;;;;;5.29;75.35;100842.16;4941479;28;20133;-71
2021/03/18 07:50:10;;;;;;;13.13;10.57;;;;;;;5.30;75.16;100838.75;4941168;28;20031;-71
2021/03/18 07:52:40;;;;;;;17.13;12.85;;;;;;;5.29;75.43;100831.88;4974294;28;20039;-70
2021/03/18 07:55:08;;;;;;;17.65;12.52;;;;;;;5.29;74.94;100831.88;4941402;28;20035;-70
2021/03/18 07:57:44;;;;;;;17.85;12.32;;;;;;;5.29;75.40;100820.69;4957566;28;20045;-71
2021/03/18 08:00:15;;;;;;;17.50;12.70;;;;;;;5.27;75.07;100823.19;4941097;28;20035;-71
2021/03/18 08:02:44;;;;;;;15.63;11.43;;;;;;;5.26;75.14;100821.41;4941041;28;20049;-70
2021/03/18 08:05:10;;;;;;;18.45;12.65;;;;;;;5.26;75.69;100820.53;4957168;28;20041;-71
2021/03/18 08:07:46;;;;;;;19.67;13.43;;;;;;;5.26;75.00;100820.53;4957312;28;20038;-71
2021/03/18 08:10:24;;;;;;;19.15;13.32;;;;;;;5.24;75.62;100824.69;4941459;28;20505;-71
2021/03/18 08:13:01;;;;;;;20.00;13.38;;;;;;;5.26;75.06;100825.66;4974579;28;20039;-71
2021/03/18 08:15:29;;;;;;;21.35;14.07;;;;;;;5.24;75.75;100817.88;4974746;28;20477;-71
2021/03/18 08:17:57;;;;;;;21.30;14.70;;;;;;;5.25;75.11;100819.66;4941209;28;20039;-71
2021/03/18 08:20:44;;;;;;;20.35;14.57;;;;;;;5.24;75.05;100811.84;4940861;28;20117;-71
2021/03/18 08:23:28;;;;;;;19.65;14.80;;;;;;;5.23;75.15;100799.81;4957404;28;20096;-71
2021/03/18 08:25:59;;;;;;;21.92;15.98;;;;;;;5.23;75.12;100804.94;4974412;28;20376;-71
2021/03/18 08:28:33;;;;;;;22.13;15.05;;;;;;;5.22;74.69;100806.66;4941165;28;20517;-71
2021/03/18 08:31:05;;;;;;;21.90;14.57;;;;;;;5.21;75.45;100810.03;4974730;28;20041;-71
2021/03/18 08:33:36;;;;;;;23.80;14.73;;;;;;;5.24;75.25;100814.41;4941119;28;20050;-71
2021/03/18 08:36:31;;;;;;;20.40;15.15;;;;;;;5.22;75.11;100821.16;4941174;28;20039;-71
2021/03/18 08:38:59;;;;;;;20.98;15.68;;;;;;;5.21;75.45;100820.31;4973865;28;20086;-71
2021/03/18 08:41:30;;;;;;;20.75;14.43;;;;;;;5.21;75.26;100819.44;4940852;28;20042;-71
2021/03/18 08:44:15;;;;;;;25.40;16.80;;;;;;;5.21;75.11;100819.44;4974220;28;20461;-71
2021/03/18 08:46:41;;;;;;;;;;;;;;;5.18;75.33;100823.59;4974507;28;20058;-71
2021/03/18 08:49:31;;;;;;;19.15;14.30;;;;;;;5.17;74.79;100829.56;4940694;28;19918;-71
2021/03/18 08:52:00;;;;;;;22.75;14.90;;;;;;;5.18;75.25;100831.31;4948296;28;20086;-71
2021/03/18 08:54:38;;;;;;;24.23;15.18;;;;;;;5.17;74.72;100831.22;4974060;28;20039;-71
2021/03/18 08:57:05;;;;;;;21.13;15.50;;;;;;;5.18;75.31;100833.00;4974015;28;20126;-71
2021/03/18 08:59:32;;;;;;;19.92;14.80;;;;;;;5.19;74.99;100839.91;4974241;28;20039;-71
2021/03/18 09:02:11;;;;;;;26.83;15.73;;;;;;;5.17;75.04;100838.94;4955070;29;20043;-71
2021/03/18 09:04:42;;;;;;;19.45;13.82;;;;;;;5.17;75.29;100836.38;4925648;29;20040;-71
2021/03/18 09:07:13;;;;;;;20.00;13.70;;;;;;;5.17;75.15;100852.69;4925451;29;20039;-71
2021/03/18 09:09:41;;;;;;;21.58;15.13;;;;;;;5.18;75.12;100853.56;4925022;29;20411;-71
2021/03/18 09:12:08;;;;;;;19.08;14.13;;;;;;;5.17;75.47;100852.69;4924832;29;20035;-71
2021/03/18 09:14:35;;;;;;;20.98;13.98;;;;;;;5.18;75.52;100862.16;4957886;29;20129;-71
2021/03/18 09:17:11;;;;;;;20.10;14.05;;;;;;;5.17;75.26;100860.38;4958334;29;20583;-71
2021/03/18 09:19:42;;;;;;;24.73;15.90;;;;;;;5.18;75.56;100851.88;4940752;29;20032;-71
2021/03/18 09:22:08;;;;;;;17.13;13.05;;;;;;;5.18;75.33;100856.13;4940615;29;20570;-71
2021/03/18 09:24:38;;;;;;;20.23;13.73;;;;;;;5.19;75.32;100863.03;4957735;29;20070;-71
2021/03/18 09:27:12;;;;;;;19.42;13.07;;;;;;;5.17;75.09;100856.91;4924521;29;20039;-71
2021/03/18 09:29:42;;;;;;;;;;;;;;;5.16;75.47;100860.28;4925686;29;20134;-71
2021/03/18 09:32:11;;;;;;;21.42;13.23;;;;;;;5.15;75.04;100859.44;4925128;29;19977;-71
2021/03/18 09:34:39;;;;;;;19.50;13.73;;;;;;;5.14;75.39;100854.19;4924619;29;20036;-71
2021/03/18 09:37:05;;;;;;;19.55;14.02;;;;;;;5.14;74.93;100857.66;4924487;29;20491;-71
2021/03/18 09:39:30;;;;;;;19.65;14.18;;;;;;;5.15;75.45;100854.28;4940468;29;20078;-71
2021/03/18 09:42:03;;;;;;;21.67;13.05;;;;;;;5.15;75.53;100853.38;4939849;29;20031;-71
2021/03/18 09:44:30;;;;;;;19.65;13.07;;;;;;;5.15;75.39;100853.38;4957821;29;20118;-71
2021/03/18 09:47:07;;;;;;;19.20;12.30;;;;;;;5.11;75.05;100843.78;4950092;29;20075;-71
2021/03/18 09:49:41;;;;;;;18.00;12.63;;;;;;;5.13;74.98;100843.03;4957070;29;20039;-71
2021/03/18 09:52:06;;;;;;;;;;;;;;;5.12;74.91;100838.69;4924855;29;20182;-71
2021/03/18 09:54:32;;;;;;;22.35;13.52;;;;;;;5.13;74.95;100837.03;4956846;29;19989;-71
2021/03/18 09:57:03;;;;;;;16.10;11.32;;;;;;;5.12;75.64;100836.13;4924277;29;20035;-72
2021/03/18 09:59:29;;;;;;;16.85;11.85;;;;;;;5.12;75.05;100841.28;4924606;29;20036;-71
2021/03/18 10:01:55;;;;;;;16.73;12.82;;;;;;;5.11;75.33;100834.38;4936668;29;20051;-71
2021/03/18 10:04:25;;;;;;;19.08;11.07;;;;;;;5.13;75.63;100839.59;4920836;29;20496;-71
2021/03/18 10:06:53;;;;;;;16.90;11.15;;;;;;;5.12;74.84;100838.69;4923863;29;20035;-71
2021/03/18 10:09:56;;;;;;;17.98;11.55;;;;;;;5.12;74.94;100835.28;4956847;29;20047;-71
2021/03/18 10:12:26;;;;;;;15.30;10.85;;;;;;;5.12;75.05;100838.69;4904062;29;20070;-72
2021/03/18 10:14:54;;;;;;;13.50;10.60;;;;;;;5.13;75.03;100840.47;4956999;29;20403;-71
2021/03/18 10:17:25;;;;;;;17.73;11.02;;;;;;;5.13;75.15;100834.47;4939482;29;20043;-71
2021/03/18 10:19:54;;;;;;;17.88;10.63;;;;;;;5.12;75.05;100836.13;4956541;29;20094;-71
2021/03/18 10:22:29;;;;;;;15.48;10.90;;;;;;;5.13;75.32;100832.75;4939886;29;20079;-71
2021/03/18 10:25:13;;;;;;;15.20;9.60;;;;;;;5.13;75.56;100829.31;4932509;29;20126;-72
2021/03/18 10:27:41;;;;;;;16.52;10.40;;;;;;;5.12;75.47;100825.00;4939790;29;20037;-71
2021/03/18 10:30:18;;;;;;;17.77;10.35;;;;;;;5.13;74.79;100824.19;4956619;29;20039;-71
2021/03/18 10:33:04;;;;;;;15.63;9.18;;;;;;;5.12;74.89;100810.44;4956996;29;20042;-71
2021/03/18 10:35:32;;;;;;;11.95;9.65;;;;;;;5.14;74.83;100813.06;4938495;29;20089;-71
2021/03/18 10:38:01;;;;;;;14.38;9.50;;;;;;;5.14;75.50;100798.56;4923339;29;20039;-72
2021/03/18 10:40:38;;;;;;;17.38;9.50;;;;;;;5.14;75.45;100801.13;4955986;29;20106;-72
2021/03/18 10:43:17;;;;;;;10.95;8.68;;;;;;;5.14;75.76;100800.22;4917468;29;20134;-71
2021/03/18 10:45:44;;;;;;;15.27;9.18;;;;;;;5.13;75.51;100794.22;4956491;29;20110;-72
2021/03/18 10:48:09;;;;;;;14.57;9.20;;;;;;;5.14;74.91;100792.50;4956221;29;20042;-71
2021/03/18 10:50:39;;;;;;;12.63;9.02;;;;;;;5.15;75.25;100784.00;4939031;29;20464;-71
2021/03/18 10:53:07;;;;;;;10.82;7.90;;;;;;;5.15;74.84;100792.59;4923151;29;20040;-72
2021/03/18 10:55:38;;;;;;;10.55;8.55;;;;;;;5.14;75.09;100783.13;4923577;29;20039;-72
2021/03/18 10:58:10;;;;;;;14.63;8.55;;;;;;;5.15;75.02;100786.56;4938965;29;20098;-71
2021/03/18 11:00:40;;;;;;;11.25;6.78;;;;;;;5.14;74.76;100778.00;4956304;29;20497;-71
2021/03/18 11:03:16;;;;;;;11.55;7.95;;;;;;;5.15;75.56;100782.31;4936715;28;20055;-71
2021/03/18 11:05:48;;;;;;;14.40;9.10;;;;;;;5.16;74.72;100778.97;4957956;28;20031;-72
2021/03/18 11:08:16;;;;;;;16.58;6.85;;;;;;;5.15;75.08;100778.84;4941898;28;20045;-71
2021/03/18 11:10:44;;;;;;;9.40;7.20;;;;;;;5.16;75.36;100776.38;4975494;28;20039;-71
2021/03/18 11:13:20;;;;;;;13.98;7.68;;;;;;;5.17;74.79;100777.25;4957849;28;20131;-71
2021/03/18 11:16:04;;;;;;;10.50;6.47;;;;;;;5.16;74.88;100767.78;4958017;28;20046;-72
2021/03/18 11:18:35;;;;;;;15.25;7.72;;;;;;;5.15;74.74;100763.44;4942338;28;20054;-72
2021/03/18 11:21:16;;;;;;;13.65;6.72;;;;;;;5.16;74.82;100768.69;4957923;28;20034;-72
2021/03/18 11:23:42;;;;;;;11.48;6.47;;;;;;;5.16;74.82;100757.50;4941509;28;20043;-72
2021/03/18 11:26:07;;;;;;;13.10;6.90;;;;;;;5.15;74.64;100759.19;4957566;28;20379;-71
2021/03/18 11:28:35;;;;;;;11.70;6.15;;;;;;;5.16;74.69;100760.06;4974895;28;20035;-71
2021/03/18 11:31:12;;;;;;;10.95;6.35;;;;;;;5.17;75.23;100748.97;4974862;28;20119;-71
2021/03/18 11:33:40;;;;;;;12.68;5.93;;;;;;;5.18;74.62;100755.88;4941371;28;20133;-71
2021/03/18 11:36:09;;;;;;;11.50;6.32;;;;;;;5.18;75.05;100749.06;4974762;28;20042;-71
2021/03/18 11:38:37;;;;;;;16.88;6.45;;;;;;;5.17;74.17;100747.31;4941390;28;20524;-71
2021/03/18 11:41:09;;;;;;;9.38;5.57;;;;;;;5.17;74.36;100742.19;4957082;28;20064;-71
2021/03/18 11:43:34;;;;;;;12.48;5.70;;;;;;;5.20;74.84;100735.44;4941968;28;20113;-71
2021/03/18 11:46:02;;;;;;;12.20;7.10;;;;;;;5.22;75.10;100739.81;4974696;28;20487;-71